sensor_id;sensor_type;location;lat;lon;timestamp;P1;durP1;ratioP1;P2;durP2;ratioP2
52838;SDS011;39219;53.678;9.856;2024-01-25T00:00:48;37.30;;;6.38;;
52838;SDS011;39219;53.678;9.856;2024-01-25T00:03:15;40.38;;;6.55;;
52838;SDS011;39219;53.678;9.856;2024-01-25T00:05:41;34.80;;;6.93;;
52838;SDS011;39219;53.678;9.856;2024-01-25T00:08:09;33.53;;;6.63;;
52838;SDS011;39219;53.678;9.856;2024-01-25T00:10:35;32.33;;;6.85;;
52838;SDS011;39219;53.678;9.856;2024-01-25T00:13:01;33.20;;;6.05;;
52838;SDS011;39219;53.678;9.856;2024-01-25T00:15:29;40.65;;;6.38;;
52838;SDS011;39219;53.678;9.856;2024-01-25T00:17:56;42.35;;;6.90;;
52838;SDS011;39219;53.678;9.856;2024-01-25T00:20:22;42.75;;;6.97;;
52838;SDS011;39219;53.678;9.856;2024-01-25T00:22:49;45.75;;;8.02;;
52838;SDS011;39219;53.678;9.856;2024-01-25T00:25:15;32.92;;;6.25;;
52838;SDS011;39219;53.678;9.856;2024-01-25T00:27:42;36.28;;;6.63;;
52838;SDS011;39219;53.678;9.856;2024-01-25T00:30:10;30.55;;;6.50;;
52838;SDS011;39219;53.678;9.856;2024-01-25T00:32:38;43.50;;;7.05;;
52838;SDS011;39219;53.678;9.856;2024-01-25T00:35:05;31.40;;;6.03;;
52838;SDS011;39219;53.678;9.856;2024-01-25T00:37:35;37.03;;;6.05;;
52838;SDS011;39219;53.678;9.856;2024-01-25T00:40:02;36.58;;;6.88;;
52838;SDS011;39219;53.678;9.856;2024-01-25T00:42:29;33.05;;;6.28;;
52838;SDS011;39219;53.678;9.856;2024-01-25T00:44:57;34.83;;;6.57;;
52838;SDS011;39219;53.678;9.856;2024-01-25T00:47:24;41.40;;;6.80;;
52838;SDS011;39219;53.678;9.856;2024-01-25T00:49:52;35.25;;;6.40;;
52838;SDS011;39219;53.678;9.856;2024-01-25T00:52:19;30.88;;;6.13;;
52838;SDS011;39219;53.678;9.856;2024-01-25T00:54:46;34.15;;;6.95;;
52838;SDS011;39219;53.678;9.856;2024-01-25T00:57:13;33.83;;;6.15;;
52838;SDS011;39219;53.678;9.856;2024-01-25T00:59:40;39.38;;;6.47;;
52838;SDS011;39219;53.678;9.856;2024-01-25T01:02:07;34.05;;;6.13;;
52838;SDS011;39219;53.678;9.856;2024-01-25T01:04:37;23.80;;;5.32;;
52838;SDS011;39219;53.678;9.856;2024-01-25T01:07:06;44.05;;;6.72;;
52838;SDS011;39219;53.678;9.856;2024-01-25T01:09:34;31.63;;;5.50;;
52838;SDS011;39219;53.678;9.856;2024-01-25T01:12:01;27.80;;;6.15;;
52838;SDS011;39219;53.678;9.856;2024-01-25T01:14:27;36.60;;;5.78;;
52838;SDS011;39219;53.678;9.856;2024-01-25T01:16:54;30.85;;;5.47;;
52838;SDS011;39219;53.678;9.856;2024-01-25T01:19:20;41.22;;;6.85;;
52838;SDS011;39219;53.678;9.856;2024-01-25T01:21:47;25.98;;;5.95;;
52838;SDS011;39219;53.678;9.856;2024-01-25T01:24:15;31.02;;;5.90;;
52838;SDS011;39219;53.678;9.856;2024-01-25T01:26:41;33.97;;;6.00;;
52838;SDS011;39219;53.678;9.856;2024-01-25T01:29:07;30.88;;;5.78;;
52838;SDS011;39219;53.678;9.856;2024-01-25T01:31:34;35.10;;;6.30;;
52838;SDS011;39219;53.678;9.856;2024-01-25T01:33:59;42.30;;;6.38;;
52838;SDS011;39219;53.678;9.856;2024-01-25T01:36:26;28.48;;;5.57;;
52838;SDS011;39219;53.678;9.856;2024-01-25T01:38:52;35.58;;;6.20;;
52838;SDS011;39219;53.678;9.856;2024-01-25T01:41:20;32.92;;;5.18;;
52838;SDS011;39219;53.678;9.856;2024-01-25T01:43:47;31.65;;;5.75;;
52838;SDS011;39219;53.678;9.856;2024-01-25T01:46:18;40.13;;;6.63;;
52838;SDS011;39219;53.678;9.856;2024-01-25T01:48:55;30.40;;;5.70;;
52838;SDS011;39219;53.678;9.856;2024-01-25T01:51:22;37.88;;;6.22;;
52838;SDS011;39219;53.678;9.856;2024-01-25T01:53:48;30.35;;;6.15;;
52838;SDS011;39219;53.678;9.856;2024-01-25T01:56:15;34.58;;;5.88;;
52838;SDS011;39219;53.678;9.856;2024-01-25T01:58:44;33.42;;;6.00;;
52838;SDS011;39219;53.678;9.856;2024-01-25T02:01:13;33.00;;;5.75;;
52838;SDS011;39219;53.678;9.856;2024-01-25T02:03:40;36.92;;;5.63;;
52838;SDS011;39219;53.678;9.856;2024-01-25T02:06:06;36.72;;;5.65;;
52838;SDS011;39219;53.678;9.856;2024-01-25T02:08:33;32.83;;;6.05;;
52838;SDS011;39219;53.678;9.856;2024-01-25T02:10:59;35.35;;;5.68;;
52838;SDS011;39219;53.678;9.856;2024-01-25T02:13:26;32.22;;;5.82;;
52838;SDS011;39219;53.678;9.856;2024-01-25T02:15:54;28.27;;;5.82;;
52838;SDS011;39219;53.678;9.856;2024-01-25T02:18:20;34.35;;;5.82;;
52838;SDS011;39219;53.678;9.856;2024-01-25T02:20:47;29.08;;;5.45;;
52838;SDS011;39219;53.678;9.856;2024-01-25T02:23:15;34.70;;;6.03;;
52838;SDS011;39219;53.678;9.856;2024-01-25T02:25:42;37.50;;;6.45;;
52838;SDS011;39219;53.678;9.856;2024-01-25T02:28:08;32.72;;;5.90;;
52838;SDS011;39219;53.678;9.856;2024-01-25T02:30:35;31.80;;;5.70;;
52838;SDS011;39219;53.678;9.856;2024-01-25T02:33:01;35.08;;;6.25;;
52838;SDS011;39219;53.678;9.856;2024-01-25T02:35:28;31.60;;;5.90;;
52838;SDS011;39219;53.678;9.856;2024-01-25T02:37:54;32.45;;;6.03;;
52838;SDS011;39219;53.678;9.856;2024-01-25T02:40:22;35.58;;;6.30;;
52838;SDS011;39219;53.678;9.856;2024-01-25T02:42:48;30.33;;;6.28;;
52838;SDS011;39219;53.678;9.856;2024-01-25T02:45:15;31.85;;;5.60;;
52838;SDS011;39219;53.678;9.856;2024-01-25T02:47:41;35.83;;;5.55;;
52838;SDS011;39219;53.678;9.856;2024-01-25T02:50:08;33.30;;;6.07;;
52838;SDS011;39219;53.678;9.856;2024-01-25T02:52:35;34.20;;;6.18;;
52838;SDS011;39219;53.678;9.856;2024-01-25T02:55:01;37.38;;;6.18;;
52838;SDS011;39219;53.678;9.856;2024-01-25T02:57:30;33.92;;;5.32;;
52838;SDS011;39219;53.678;9.856;2024-01-25T02:59:57;31.67;;;5.82;;
52838;SDS011;39219;53.678;9.856;2024-01-25T03:02:23;30.17;;;5.72;;
52838;SDS011;39219;53.678;9.856;2024-01-25T03:04:50;32.10;;;5.82;;
52838;SDS011;39219;53.678;9.856;2024-01-25T03:07:16;42.15;;;6.03;;
52838;SDS011;39219;53.678;9.856;2024-01-25T03:09:42;35.03;;;6.30;;
52838;SDS011;39219;53.678;9.856;2024-01-25T03:12:10;34.05;;;6.47;;
52838;SDS011;39219;53.678;9.856;2024-01-25T03:14:38;36.45;;;5.72;;
52838;SDS011;39219;53.678;9.856;2024-01-25T03:17:04;27.95;;;4.97;;
52838;SDS011;39219;53.678;9.856;2024-01-25T03:19:31;39.63;;;5.78;;
52838;SDS011;39219;53.678;9.856;2024-01-25T03:21:57;32.65;;;5.80;;
52838;SDS011;39219;53.678;9.856;2024-01-25T03:24:26;27.85;;;5.57;;
52838;SDS011;39219;53.678;9.856;2024-01-25T03:26:52;32.20;;;5.60;;
52838;SDS011;39219;53.678;9.856;2024-01-25T03:29:19;28.73;;;5.10;;
52838;SDS011;39219;53.678;9.856;2024-01-25T03:31:46;31.67;;;5.78;;
52838;SDS011;39219;53.678;9.856;2024-01-25T03:34:13;39.25;;;6.07;;
52838;SDS011;39219;53.678;9.856;2024-01-25T03:36:40;32.65;;;5.70;;
52838;SDS011;39219;53.678;9.856;2024-01-25T03:39:06;29.65;;;5.35;;
52838;SDS011;39219;53.678;9.856;2024-01-25T03:41:33;36.33;;;6.25;;
52838;SDS011;39219;53.678;9.856;2024-01-25T03:43:59;31.27;;;6.00;;
52838;SDS011;39219;53.678;9.856;2024-01-25T03:46:26;33.78;;;6.47;;
52838;SDS011;39219;53.678;9.856;2024-01-25T03:48:53;35.83;;;6.07;;
52838;SDS011;39219;53.678;9.856;2024-01-25T03:51:20;34.53;;;6.22;;
52838;SDS011;39219;53.678;9.856;2024-01-25T03:53:49;39.33;;;5.63;;
52838;SDS011;39219;53.678;9.856;2024-01-25T03:56:15;40.38;;;6.32;;
52838;SDS011;39219;53.678;9.856;2024-01-25T03:58:42;38.15;;;6.10;;
52838;SDS011;39219;53.678;9.856;2024-01-25T04:01:08;36.25;;;5.57;;
52838;SDS011;39219;53.678;9.856;2024-01-25T04:03:35;37.63;;;5.60;;
52838;SDS011;39219;53.678;9.856;2024-01-25T04:06:03;30.23;;;5.78;;
52838;SDS011;39219;53.678;9.856;2024-01-25T04:08:30;33.60;;;5.90;;
52838;SDS011;39219;53.678;9.856;2024-01-25T04:10:56;34.67;;;5.70;;
52838;SDS011;39219;53.678;9.856;2024-01-25T04:13:22;36.13;;;6.10;;
52838;SDS011;39219;53.678;9.856;2024-01-25T04:15:49;40.17;;;5.97;;
52838;SDS011;39219;53.678;9.856;2024-01-25T04:18:16;39.70;;;6.20;;
52838;SDS011;39219;53.678;9.856;2024-01-25T04:20:43;34.88;;;5.72;;
52838;SDS011;39219;53.678;9.856;2024-01-25T04:23:11;34.63;;;6.18;;
52838;SDS011;39219;53.678;9.856;2024-01-25T04:25:38;41.58;;;6.85;;
52838;SDS011;39219;53.678;9.856;2024-01-25T04:28:04;29.08;;;5.70;;
52838;SDS011;39219;53.678;9.856;2024-01-25T04:30:31;38.72;;;6.00;;
52838;SDS011;39219;53.678;9.856;2024-01-25T04:32:57;45.08;;;6.25;;
52838;SDS011;39219;53.678;9.856;2024-01-25T04:35:24;36.40;;;5.72;;
52838;SDS011;39219;53.678;9.856;2024-01-25T04:37:51;37.33;;;5.70;;
52838;SDS011;39219;53.678;9.856;2024-01-25T04:40:18;28.35;;;5.03;;
52838;SDS011;39219;53.678;9.856;2024-01-25T04:42:45;36.80;;;6.15;;
52838;SDS011;39219;53.678;9.856;2024-01-25T04:45:11;33.42;;;6.57;;
52838;SDS011;39219;53.678;9.856;2024-01-25T04:47:38;37.35;;;6.32;;
52838;SDS011;39219;53.678;9.856;2024-01-25T04:50:05;38.45;;;5.80;;
52838;SDS011;39219;53.678;9.856;2024-01-25T04:52:31;34.72;;;5.55;;
52838;SDS011;39219;53.678;9.856;2024-01-25T04:54:58;30.83;;;5.65;;
52838;SDS011;39219;53.678;9.856;2024-01-25T04:57:26;39.67;;;5.90;;
52838;SDS011;39219;53.678;9.856;2024-01-25T04:59:52;32.20;;;5.35;;
52838;SDS011;39219;53.678;9.856;2024-01-25T05:02:19;35.70;;;5.78;;
52838;SDS011;39219;53.678;9.856;2024-01-25T05:04:45;29.58;;;5.45;;
52838;SDS011;39219;53.678;9.856;2024-01-25T05:07:11;33.58;;;6.35;;
52838;SDS011;39219;53.678;9.856;2024-01-25T05:09:38;39.75;;;6.35;;
52838;SDS011;39219;53.678;9.856;2024-01-25T05:12:05;39.85;;;6.03;;
52838;SDS011;39219;53.678;9.856;2024-01-25T05:14:33;32.72;;;5.78;;
52838;SDS011;39219;53.678;9.856;2024-01-25T05:16:59;30.08;;;5.45;;
52838;SDS011;39219;53.678;9.856;2024-01-25T05:19:26;28.67;;;5.22;;
52838;SDS011;39219;53.678;9.856;2024-01-25T05:21:52;32.58;;;6.10;;
52838;SDS011;39219;53.678;9.856;2024-01-25T05:24:19;29.70;;;5.18;;
52838;SDS011;39219;53.678;9.856;2024-01-25T05:26:45;30.25;;;5.78;;
52838;SDS011;39219;53.678;9.856;2024-01-25T05:29:12;31.00;;;5.93;;
52838;SDS011;39219;53.678;9.856;2024-01-25T05:31:40;32.60;;;5.55;;
52838;SDS011;39219;53.678;9.856;2024-01-25T05:34:06;29.05;;;5.25;;
52838;SDS011;39219;53.678;9.856;2024-01-25T05:36:32;34.88;;;5.78;;
52838;SDS011;39219;53.678;9.856;2024-01-25T05:38:59;31.15;;;5.78;;
52838;SDS011;39219;53.678;9.856;2024-01-25T05:41:25;32.00;;;5.60;;
52838;SDS011;39219;53.678;9.856;2024-01-25T05:43:52;33.78;;;5.95;;
52838;SDS011;39219;53.678;9.856;2024-01-25T05:46:19;33.42;;;5.75;;
52838;SDS011;39219;53.678;9.856;2024-01-25T05:48:47;34.72;;;5.47;;
52838;SDS011;39219;53.678;9.856;2024-01-25T05:51:13;37.10;;;6.53;;
52838;SDS011;39219;53.678;9.856;2024-01-25T05:53:40;38.55;;;6.13;;
52838;SDS011;39219;53.678;9.856;2024-01-25T05:56:06;27.77;;;5.97;;
52838;SDS011;39219;53.678;9.856;2024-01-25T05:58:33;37.10;;;6.18;;
52838;SDS011;39219;53.678;9.856;2024-01-25T06:00:59;40.65;;;6.10;;
52838;SDS011;39219;53.678;9.856;2024-01-25T06:03:26;36.03;;;6.78;;
52838;SDS011;39219;53.678;9.856;2024-01-25T06:05:54;37.85;;;6.28;;
52838;SDS011;39219;53.678;9.856;2024-01-25T06:08:21;32.35;;;5.78;;
52838;SDS011;39219;53.678;9.856;2024-01-25T06:10:47;34.40;;;5.47;;
52838;SDS011;39219;53.678;9.856;2024-01-25T06:13:14;28.38;;;4.93;;
52838;SDS011;39219;53.678;9.856;2024-01-25T06:15:40;32.40;;;4.78;;
52838;SDS011;39219;53.678;9.856;2024-01-25T06:18:07;29.83;;;5.68;;
52838;SDS011;39219;53.678;9.856;2024-01-25T06:20:33;36.15;;;5.90;;
52838;SDS011;39219;53.678;9.856;2024-01-25T06:23:01;33.70;;;6.03;;
52838;SDS011;39219;53.678;9.856;2024-01-25T06:25:28;28.20;;;4.88;;
52838;SDS011;39219;53.678;9.856;2024-01-25T06:27:55;35.78;;;5.72;;
52838;SDS011;39219;53.678;9.856;2024-01-25T06:30:23;30.02;;;5.25;;
52838;SDS011;39219;53.678;9.856;2024-01-25T06:32:50;34.13;;;5.68;;
52838;SDS011;39219;53.678;9.856;2024-01-25T06:35:16;32.55;;;5.00;;
52838;SDS011;39219;53.678;9.856;2024-01-25T06:37:43;39.28;;;5.93;;
52838;SDS011;39219;53.678;9.856;2024-01-25T06:40:10;35.53;;;6.55;;
52838;SDS011;39219;53.678;9.856;2024-01-25T06:42:37;29.10;;;5.65;;
52838;SDS011;39219;53.678;9.856;2024-01-25T06:45:04;40.63;;;5.85;;
52838;SDS011;39219;53.678;9.856;2024-01-25T06:47:30;28.55;;;5.28;;
52838;SDS011;39219;53.678;9.856;2024-01-25T06:49:57;29.90;;;5.18;;
52838;SDS011;39219;53.678;9.856;2024-01-25T06:52:23;29.17;;;5.30;;
52838;SDS011;39219;53.678;9.856;2024-01-25T06:54:50;27.70;;;5.93;;
52838;SDS011;39219;53.678;9.856;2024-01-25T06:57:18;26.88;;;5.43;;
52838;SDS011;39219;53.678;9.856;2024-01-25T06:59:43;28.05;;;4.97;;
52838;SDS011;39219;53.678;9.856;2024-01-25T07:02:09;31.58;;;5.85;;
52838;SDS011;39219;53.678;9.856;2024-01-25T07:04:36;31.85;;;5.30;;
52838;SDS011;39219;53.678;9.856;2024-01-25T07:07:05;30.10;;;4.90;;
52838;SDS011;39219;53.678;9.856;2024-01-25T07:09:32;32.53;;;5.57;;
52838;SDS011;39219;53.678;9.856;2024-01-25T07:11:58;31.48;;;5.13;;
52838;SDS011;39219;53.678;9.856;2024-01-25T07:14:26;26.73;;;5.50;;
52838;SDS011;39219;53.678;9.856;2024-01-25T07:16:53;31.83;;;5.53;;
52838;SDS011;39219;53.678;9.856;2024-01-25T07:19:19;36.47;;;6.15;;
52838;SDS011;39219;53.678;9.856;2024-01-25T07:21:46;32.45;;;6.55;;
52838;SDS011;39219;53.678;9.856;2024-01-25T07:24:13;33.40;;;5.43;;
52838;SDS011;39219;53.678;9.856;2024-01-25T07:26:40;34.13;;;5.78;;
52838;SDS011;39219;53.678;9.856;2024-01-25T07:29:06;36.97;;;5.60;;
52838;SDS011;39219;53.678;9.856;2024-01-25T07:31:34;39.72;;;6.20;;
52838;SDS011;39219;53.678;9.856;2024-01-25T07:34:00;31.42;;;5.38;;
52838;SDS011;39219;53.678;9.856;2024-01-25T07:36:27;34.58;;;5.63;;
52838;SDS011;39219;53.678;9.856;2024-01-25T07:38:54;31.95;;;5.70;;
52838;SDS011;39219;53.678;9.856;2024-01-25T07:41:21;36.65;;;5.93;;
52838;SDS011;39219;53.678;9.856;2024-01-25T07:43:48;40.63;;;5.75;;
52838;SDS011;39219;53.678;9.856;2024-01-25T07:46:14;35.72;;;6.25;;
52838;SDS011;39219;53.678;9.856;2024-01-25T07:48:42;27.67;;;5.40;;
52838;SDS011;39219;53.678;9.856;2024-01-25T07:51:12;32.30;;;5.45;;
52838;SDS011;39219;53.678;9.856;2024-01-25T07:53:38;35.08;;;5.80;;
52838;SDS011;39219;53.678;9.856;2024-01-25T07:56:06;32.40;;;5.22;;
52838;SDS011;39219;53.678;9.856;2024-01-25T07:58:32;33.40;;;5.88;;
52838;SDS011;39219;53.678;9.856;2024-01-25T08:00:59;28.63;;;5.35;;
52838;SDS011;39219;53.678;9.856;2024-01-25T08:03:29;33.83;;;5.53;;
52838;SDS011;39219;53.678;9.856;2024-01-25T08:05:56;32.47;;;5.30;;
52838;SDS011;39219;53.678;9.856;2024-01-25T08:08:23;35.45;;;5.65;;
52838;SDS011;39219;53.678;9.856;2024-01-25T08:10:49;34.20;;;5.25;;
52838;SDS011;39219;53.678;9.856;2024-01-25T08:13:16;24.00;;;4.78;;
52838;SDS011;39219;53.678;9.856;2024-01-25T08:15:42;35.15;;;5.40;;
52838;SDS011;39219;53.678;9.856;2024-01-25T08:18:09;28.45;;;5.18;;
52838;SDS011;39219;53.678;9.856;2024-01-25T08:20:36;32.70;;;5.15;;
52838;SDS011;39219;53.678;9.856;2024-01-25T08:23:04;34.35;;;5.57;;
52838;SDS011;39219;53.678;9.856;2024-01-25T08:25:33;29.20;;;4.95;;
52838;SDS011;39219;53.678;9.856;2024-01-25T08:27:59;33.25;;;5.60;;
52838;SDS011;39219;53.678;9.856;2024-01-25T08:30:26;27.83;;;5.13;;
52838;SDS011;39219;53.678;9.856;2024-01-25T08:32:52;26.60;;;4.57;;
52838;SDS011;39219;53.678;9.856;2024-01-25T08:35:19;38.20;;;5.68;;
52838;SDS011;39219;53.678;9.856;2024-01-25T08:37:46;35.30;;;5.35;;
52838;SDS011;39219;53.678;9.856;2024-01-25T08:40:14;26.92;;;5.40;;
52838;SDS011;39219;53.678;9.856;2024-01-25T08:42:40;31.55;;;5.43;;
52838;SDS011;39219;53.678;9.856;2024-01-25T08:45:07;28.73;;;5.60;;
52838;SDS011;39219;53.678;9.856;2024-01-25T08:47:34;33.75;;;5.88;;
52838;SDS011;39219;53.678;9.856;2024-01-25T08:50:01;31.98;;;4.88;;
52838;SDS011;39219;53.678;9.856;2024-01-25T08:52:28;25.35;;;4.95;;
52838;SDS011;39219;53.678;9.856;2024-01-25T08:54:55;24.85;;;5.03;;
52838;SDS011;39219;53.678;9.856;2024-01-25T08:57:22;24.25;;;5.15;;
52838;SDS011;39219;53.678;9.856;2024-01-25T08:59:49;30.75;;;5.05;;
52838;SDS011;39219;53.678;9.856;2024-01-25T09:02:15;31.17;;;5.80;;
52838;SDS011;39219;53.678;9.856;2024-01-25T09:04:42;26.83;;;4.97;;
52838;SDS011;39219;53.678;9.856;2024-01-25T09:07:09;30.67;;;5.18;;
52838;SDS011;39219;53.678;9.856;2024-01-25T09:09:35;26.75;;;5.40;;
52838;SDS011;39219;53.678;9.856;2024-01-25T09:12:02;30.67;;;5.60;;
52838;SDS011;39219;53.678;9.856;2024-01-25T09:14:30;28.02;;;5.50;;
52838;SDS011;39219;53.678;9.856;2024-01-25T09:16:57;28.00;;;4.78;;
52838;SDS011;39219;53.678;9.856;2024-01-25T09:19:24;29.25;;;5.00;;
52838;SDS011;39219;53.678;9.856;2024-01-25T09:21:50;30.35;;;5.78;;
52838;SDS011;39219;53.678;9.856;2024-01-25T09:24:17;35.70;;;5.38;;
52838;SDS011;39219;53.678;9.856;2024-01-25T09:26:43;33.42;;;5.45;;
52838;SDS011;39219;53.678;9.856;2024-01-25T09:29:09;28.33;;;5.05;;
52838;SDS011;39219;53.678;9.856;2024-01-25T09:31:37;31.20;;;4.72;;
52838;SDS011;39219;53.678;9.856;2024-01-25T09:34:04;28.42;;;5.65;;
52838;SDS011;39219;53.678;9.856;2024-01-25T09:36:30;27.63;;;5.45;;
52838;SDS011;39219;53.678;9.856;2024-01-25T09:38:56;29.40;;;4.72;;
52838;SDS011;39219;53.678;9.856;2024-01-25T09:41:23;25.48;;;4.95;;
52838;SDS011;39219;53.678;9.856;2024-01-25T09:43:50;26.17;;;4.28;;
52838;SDS011;39219;53.678;9.856;2024-01-25T09:46:16;29.45;;;5.30;;
52838;SDS011;39219;53.678;9.856;2024-01-25T09:48:45;26.42;;;5.13;;
52838;SDS011;39219;53.678;9.856;2024-01-25T09:51:13;25.35;;;5.35;;
52838;SDS011;39219;53.678;9.856;2024-01-25T09:53:40;34.33;;;5.93;;
52838;SDS011;39219;53.678;9.856;2024-01-25T09:56:07;27.27;;;4.72;;
52838;SDS011;39219;53.678;9.856;2024-01-25T09:58:36;28.30;;;5.20;;
52838;SDS011;39219;53.678;9.856;2024-01-25T10:01:05;27.38;;;5.32;;
52838;SDS011;39219;53.678;9.856;2024-01-25T10:03:35;32.00;;;4.90;;
52838;SDS011;39219;53.678;9.856;2024-01-25T10:06:02;25.98;;;4.97;;
52838;SDS011;39219;53.678;9.856;2024-01-25T10:08:31;26.00;;;4.85;;
52838;SDS011;39219;53.678;9.856;2024-01-25T10:10:58;30.30;;;5.13;;
52838;SDS011;39219;53.678;9.856;2024-01-25T10:13:25;28.75;;;5.40;;
52838;SDS011;39219;53.678;9.856;2024-01-25T10:15:52;25.08;;;4.60;;
52838;SDS011;39219;53.678;9.856;2024-01-25T10:18:19;21.42;;;4.05;;
52838;SDS011;39219;53.678;9.856;2024-01-25T10:20:46;25.63;;;4.55;;
52838;SDS011;39219;53.678;9.856;2024-01-25T10:23:14;28.23;;;4.93;;
52838;SDS011;39219;53.678;9.856;2024-01-25T10:25:41;26.05;;;4.43;;
52838;SDS011;39219;53.678;9.856;2024-01-25T10:28:07;27.05;;;4.55;;
52838;SDS011;39219;53.678;9.856;2024-01-25T10:30:34;30.38;;;5.03;;
52838;SDS011;39219;53.678;9.856;2024-01-25T10:33:01;21.90;;;4.63;;
52838;SDS011;39219;53.678;9.856;2024-01-25T10:35:29;26.42;;;4.70;;
52838;SDS011;39219;53.678;9.856;2024-01-25T10:37:57;21.27;;;4.38;;
52838;SDS011;39219;53.678;9.856;2024-01-25T10:40:26;25.30;;;4.40;;
52838;SDS011;39219;53.678;9.856;2024-01-25T10:42:54;20.90;;;4.45;;
52838;SDS011;39219;53.678;9.856;2024-01-25T10:45:20;34.72;;;5.20;;
52838;SDS011;39219;53.678;9.856;2024-01-25T10:47:48;26.20;;;4.55;;
52838;SDS011;39219;53.678;9.856;2024-01-25T10:50:14;26.17;;;4.57;;
52838;SDS011;39219;53.678;9.856;2024-01-25T10:52:41;27.00;;;3.90;;
52838;SDS011;39219;53.678;9.856;2024-01-25T10:55:08;21.60;;;4.38;;
52838;SDS011;39219;53.678;9.856;2024-01-25T10:57:39;23.08;;;4.25;;
52838;SDS011;39219;53.678;9.856;2024-01-25T11:00:09;27.95;;;4.40;;
52838;SDS011;39219;53.678;9.856;2024-01-25T11:02:37;23.88;;;4.22;;
52838;SDS011;39219;53.678;9.856;2024-01-25T11:05:06;20.60;;;4.13;;
52838;SDS011;39219;53.678;9.856;2024-01-25T11:07:40;21.42;;;4.15;;
52838;SDS011;39219;53.678;9.856;2024-01-25T11:10:10;19.17;;;4.10;;
52838;SDS011;39219;53.678;9.856;2024-01-25T11:12:47;20.65;;;3.78;;
52838;SDS011;39219;53.678;9.856;2024-01-25T11:15:17;24.42;;;4.40;;
52838;SDS011;39219;53.678;9.856;2024-01-25T11:17:50;21.55;;;4.20;;
52838;SDS011;39219;53.678;9.856;2024-01-25T11:20:19;21.77;;;4.03;;
52838;SDS011;39219;53.678;9.856;2024-01-25T11:22:47;24.48;;;4.13;;
52838;SDS011;39219;53.678;9.856;2024-01-25T11:25:13;19.40;;;4.10;;
52838;SDS011;39219;53.678;9.856;2024-01-25T11:27:45;24.70;;;4.65;;
52838;SDS011;39219;53.678;9.856;2024-01-25T11:30:13;22.23;;;4.18;;
52838;SDS011;39219;53.678;9.856;2024-01-25T11:32:40;21.55;;;4.50;;
52838;SDS011;39219;53.678;9.856;2024-01-25T11:35:09;23.48;;;4.57;;
52838;SDS011;39219;53.678;9.856;2024-01-25T11:37:38;22.55;;;4.70;;
52838;SDS011;39219;53.678;9.856;2024-01-25T11:40:05;22.13;;;4.45;;
52838;SDS011;39219;53.678;9.856;2024-01-25T11:42:32;28.13;;;4.90;;
52838;SDS011;39219;53.678;9.856;2024-01-25T11:44:59;21.85;;;4.78;;
52838;SDS011;39219;53.678;9.856;2024-01-25T11:47:27;23.42;;;4.97;;
52838;SDS011;39219;53.678;9.856;2024-01-25T11:49:53;21.80;;;3.78;;
52838;SDS011;39219;53.678;9.856;2024-01-25T11:52:20;23.80;;;4.63;;
52838;SDS011;39219;53.678;9.856;2024-01-25T11:54:46;17.67;;;4.43;;
52838;SDS011;39219;53.678;9.856;2024-01-25T11:57:12;30.40;;;4.20;;
52838;SDS011;39219;53.678;9.856;2024-01-25T11:59:39;16.48;;;4.22;;
52838;SDS011;39219;53.678;9.856;2024-01-25T12:02:06;22.15;;;4.80;;
52838;SDS011;39219;53.678;9.856;2024-01-25T12:04:34;20.63;;;4.15;;
52838;SDS011;39219;53.678;9.856;2024-01-25T12:07:00;25.55;;;4.95;;
52838;SDS011;39219;53.678;9.856;2024-01-25T12:09:27;24.23;;;4.90;;
52838;SDS011;39219;53.678;9.856;2024-01-25T12:11:54;23.80;;;4.25;;
52838;SDS011;39219;53.678;9.856;2024-01-25T12:14:20;26.50;;;5.22;;
52838;SDS011;39219;53.678;9.856;2024-01-25T12:16:46;25.77;;;4.55;;
52838;SDS011;39219;53.678;9.856;2024-01-25T12:19:13;26.73;;;4.88;;
52838;SDS011;39219;53.678;9.856;2024-01-25T12:21:44;20.65;;;4.18;;
52838;SDS011;39219;53.678;9.856;2024-01-25T12:24:11;27.48;;;4.97;;
52838;SDS011;39219;53.678;9.856;2024-01-25T12:26:38;26.48;;;4.95;;
52838;SDS011;39219;53.678;9.856;2024-01-25T12:29:05;23.75;;;5.10;;
52838;SDS011;39219;53.678;9.856;2024-01-25T12:31:33;24.58;;;4.68;;
52838;SDS011;39219;53.678;9.856;2024-01-25T12:34:00;23.30;;;4.18;;
52838;SDS011;39219;53.678;9.856;2024-01-25T12:36:26;25.20;;;4.60;;
52838;SDS011;39219;53.678;9.856;2024-01-25T12:38:54;23.38;;;4.72;;
52838;SDS011;39219;53.678;9.856;2024-01-25T12:41:21;21.23;;;4.38;;
52838;SDS011;39219;53.678;9.856;2024-01-25T12:43:47;24.70;;;5.25;;
52838;SDS011;39219;53.678;9.856;2024-01-25T12:46:14;31.58;;;4.97;;
52838;SDS011;39219;53.678;9.856;2024-01-25T12:48:40;29.27;;;5.00;;
52838;SDS011;39219;53.678;9.856;2024-01-25T12:51:07;22.95;;;4.53;;
52838;SDS011;39219;53.678;9.856;2024-01-25T12:53:33;22.50;;;4.88;;
52838;SDS011;39219;53.678;9.856;2024-01-25T12:56:01;24.35;;;4.65;;
52838;SDS011;39219;53.678;9.856;2024-01-25T12:58:28;25.60;;;4.50;;
52838;SDS011;39219;53.678;9.856;2024-01-25T13:00:54;28.50;;;5.40;;
52838;SDS011;39219;53.678;9.856;2024-01-25T13:03:20;25.95;;;4.57;;
52838;SDS011;39219;53.678;9.856;2024-01-25T13:05:48;26.98;;;4.88;;
52838;SDS011;39219;53.678;9.856;2024-01-25T13:08:14;27.35;;;4.72;;
52838;SDS011;39219;53.678;9.856;2024-01-25T13:10:40;26.60;;;5.22;;
52838;SDS011;39219;53.678;9.856;2024-01-25T13:13:08;24.05;;;4.65;;
52838;SDS011;39219;53.678;9.856;2024-01-25T13:15:35;22.67;;;4.35;;
52838;SDS011;39219;53.678;9.856;2024-01-25T13:18:01;26.85;;;4.97;;
52838;SDS011;39219;53.678;9.856;2024-01-25T13:20:28;23.08;;;4.60;;
52838;SDS011;39219;53.678;9.856;2024-01-25T13:22:54;22.30;;;4.28;;
52838;SDS011;39219;53.678;9.856;2024-01-25T13:25:20;24.10;;;4.43;;
52838;SDS011;39219;53.678;9.856;2024-01-25T13:27:47;24.35;;;4.50;;
52838;SDS011;39219;53.678;9.856;2024-01-25T13:30:15;18.63;;;4.05;;
52838;SDS011;39219;53.678;9.856;2024-01-25T13:32:42;23.35;;;4.70;;
52838;SDS011;39219;53.678;9.856;2024-01-25T13:35:09;23.63;;;4.15;;
52838;SDS011;39219;53.678;9.856;2024-01-25T13:37:35;26.58;;;4.65;;
52838;SDS011;39219;53.678;9.856;2024-01-25T13:40:04;24.45;;;4.65;;
52838;SDS011;39219;53.678;9.856;2024-01-25T13:42:31;21.90;;;4.13;;
52838;SDS011;39219;53.678;9.856;2024-01-25T13:44:57;26.20;;;4.20;;
52838;SDS011;39219;53.678;9.856;2024-01-25T13:47:25;24.98;;;4.60;;
52838;SDS011;39219;53.678;9.856;2024-01-25T13:49:52;29.15;;;5.15;;
52838;SDS011;39219;53.678;9.856;2024-01-25T13:52:18;24.60;;;5.00;;
52838;SDS011;39219;53.678;9.856;2024-01-25T13:54:46;19.13;;;4.18;;
52838;SDS011;39219;53.678;9.856;2024-01-25T13:57:13;25.92;;;4.15;;
52838;SDS011;39219;53.678;9.856;2024-01-25T13:59:39;23.95;;;4.28;;
52838;SDS011;39219;53.678;9.856;2024-01-25T14:02:06;23.08;;;4.30;;
52838;SDS011;39219;53.678;9.856;2024-01-25T14:04:34;27.40;;;4.90;;
52838;SDS011;39219;53.678;9.856;2024-01-25T14:07:00;22.27;;;4.22;;
52838;SDS011;39219;53.678;9.856;2024-01-25T14:09:27;22.13;;;4.00;;
52838;SDS011;39219;53.678;9.856;2024-01-25T14:11:54;21.30;;;4.22;;
52838;SDS011;39219;53.678;9.856;2024-01-25T14:14:21;20.80;;;4.25;;
52838;SDS011;39219;53.678;9.856;2024-01-25T14:16:47;20.98;;;4.28;;
52838;SDS011;39219;53.678;9.856;2024-01-25T14:19:13;24.48;;;4.50;;
52838;SDS011;39219;53.678;9.856;2024-01-25T14:21:43;20.98;;;4.25;;
52838;SDS011;39219;53.678;9.856;2024-01-25T14:24:10;20.85;;;4.07;;
52838;SDS011;39219;53.678;9.856;2024-01-25T14:26:36;22.65;;;3.92;;
52838;SDS011;39219;53.678;9.856;2024-01-25T14:29:03;20.75;;;3.72;;
52838;SDS011;39219;53.678;9.856;2024-01-25T14:31:29;17.95;;;3.78;;